createdAt,value
2022-08-19T00:01:52.984Z,2.45
2022-08-19T00:06:50.949Z,2.63
2022-08-19T00:09:21.042Z,2.53
2022-08-19T00:11:52.077Z,3.47
2022-08-19T00:14:21.604Z,3.00
2022-08-19T00:16:50.397Z,2.70
2022-08-19T00:19:18.625Z,3.45
2022-08-19T00:21:46.769Z,3.33
2022-08-19T00:24:17.187Z,3.35
2022-08-19T00:26:46.459Z,2.85
2022-08-19T00:29:18.802Z,3.58
2022-08-19T00:31:47.919Z,3.10
2022-08-19T00:34:19.366Z,2.92
2022-08-19T00:36:47.919Z,3.25
2022-08-19T00:39:17.705Z,2.70
2022-08-19T00:41:48.724Z,3.60
2022-08-19T00:44:22.693Z,3.55
2022-08-19T00:46:58.094Z,2.80
2022-08-19T00:49:31.956Z,4.40
2022-08-19T00:52:04.014Z,3.63
2022-08-19T00:54:34.246Z,3.33
2022-08-19T00:57:04.155Z,4.60
2022-08-19T01:00:00.751Z,3.13
2022-08-19T01:02:22.351Z,4.00
2022-08-19T01:04:50.598Z,2.80
2022-08-19T01:07:19.890Z,3.65
2022-08-19T01:09:48.904Z,3.30
2022-08-19T01:12:18.096Z,3.13
2022-08-19T01:14:48.988Z,3.92
2022-08-19T01:17:18.319Z,3.88
2022-08-19T01:19:48.952Z,3.00
2022-08-19T01:22:30.063Z,4.50
2022-08-19T01:25:01.257Z,5.80
2022-08-19T01:27:42.957Z,3.53
2022-08-19T01:30:16.126Z,2.83
2022-08-19T01:32:44.561Z,3.05
2022-08-19T01:35:14.806Z,4.00
2022-08-19T01:37:48.705Z,3.65
2022-08-19T01:40:20.486Z,3.00
2022-08-19T01:42:49.525Z,3.60
2022-08-19T01:45:17.873Z,6.30
2022-08-19T01:47:51.724Z,3.40
2022-08-19T01:50:31.577Z,3.50
2022-08-19T01:53:02.286Z,3.42
2022-08-19T01:55:40.884Z,3.40
2022-08-19T01:58:13.982Z,3.50
2022-08-19T02:00:42.377Z,4.35
2022-08-19T02:03:12.468Z,3.60
2022-08-19T02:05:41.533Z,3.90
2022-08-19T02:08:10.856Z,3.80
2022-08-19T02:10:44.882Z,3.53
2022-08-19T02:13:14.435Z,4.47
2022-08-19T02:15:43.221Z,3.55
2022-08-19T02:18:11.749Z,3.58
2022-08-19T02:20:41.345Z,3.33
2022-08-19T02:23:13.559Z,3.33
2022-08-19T02:25:48.059Z,4.00
2022-08-19T02:28:18.912Z,5.68
2022-08-19T02:30:48.945Z,3.25
2022-08-19T02:33:18.455Z,5.07
2022-08-19T02:35:48.001Z,3.88
2022-08-19T02:38:29.010Z,3.53
2022-08-19T02:41:00.663Z,3.55
2022-08-19T02:43:33.855Z,3.22
2022-08-19T02:46:03.366Z,3.88
2022-08-19T02:48:34.018Z,3.60
2022-08-19T02:51:02.402Z,2.97
2022-08-19T02:53:30.859Z,3.95
2022-08-19T02:56:00.725Z,3.05
2022-08-19T02:58:29.011Z,3.85
2022-08-19T03:00:58.650Z,3.42
2022-08-19T03:03:27.772Z,4.57
2022-08-19T03:06:06.113Z,2.67
2022-08-19T03:08:34.394Z,2.85
2022-08-19T03:11:04.430Z,2.58
2022-08-19T03:13:32.707Z,3.47
2022-08-19T03:16:00.845Z,3.33
2022-08-19T03:18:28.999Z,2.75
2022-08-19T03:20:57.182Z,3.58
2022-08-19T03:23:25.754Z,2.75
2022-08-19T03:26:15.522Z,3.10
2022-08-19T03:28:49.483Z,2.85
2022-08-19T03:31:45.110Z,3.30
2022-08-19T03:34:12.381Z,2.50
2022-08-19T03:36:41.274Z,3.00
2022-08-19T03:39:09.583Z,2.13
2022-08-19T03:41:45.132Z,1.83
2022-08-19T03:44:17.964Z,2.28
2022-08-19T03:46:48.337Z,1.95
2022-08-19T03:49:18.269Z,1.77
2022-08-19T03:51:48.582Z,2.42
2022-08-19T03:54:20.279Z,2.40
2022-08-19T03:59:22.298Z,2.60
2022-08-19T04:01:50.667Z,2.00
2022-08-19T04:04:20.046Z,2.20
2022-08-19T04:06:49.003Z,2.28
2022-08-19T04:09:17.723Z,2.25
2022-08-19T04:11:48.140Z,2.20
2022-08-19T04:14:20.756Z,1.88
2022-08-19T04:16:50.550Z,2.50
2022-08-19T04:19:20.396Z,2.08
2022-08-19T04:21:51.310Z,2.80
2022-08-19T04:24:20.187Z,2.70
2022-08-19T04:26:49.245Z,2.92
2022-08-19T04:29:22.313Z,2.40
2022-08-19T04:31:51.207Z,2.47
2022-08-19T04:34:23.621Z,2.35
2022-08-19T04:36:53.398Z,1.85
2022-08-19T04:39:23.702Z,2.30
2022-08-19T04:42:09.072Z,2.47
2022-08-19T04:44:39.896Z,1.65
2022-08-19T04:47:14.749Z,1.40
2022-08-19T04:49:42.924Z,2.42
2022-08-19T04:52:11.177Z,1.50
2022-08-19T04:54:40.099Z,1.45
2022-08-19T04:57:11.112Z,2.00
2022-08-19T04:59:41.531Z,2.22
2022-08-19T05:02:11.522Z,1.85
2022-08-19T05:04:40.530Z,2.20
2022-08-19T05:07:09.521Z,1.90
2022-08-19T05:09:57.175Z,1.70
2022-08-19T05:12:29.367Z,1.60
2022-08-19T05:14:59.833Z,3.47
2022-08-19T05:17:31.284Z,2.20
2022-08-19T05:20:20.621Z,1.88
2022-08-19T05:22:49.717Z,1.80
2022-08-19T05:25:21.449Z,1.90
2022-08-19T05:27:50.339Z,2.15
2022-08-19T05:30:33.379Z,2.10
2022-08-19T05:33:10.467Z,1.38
2022-08-19T05:35:39.663Z,1.63
2022-08-19T05:38:08.294Z,2.58
2022-08-19T05:40:37.099Z,2.45
2022-08-19T05:43:06.425Z,1.65
2022-08-19T05:45:41.062Z,1.90
2022-08-19T05:48:12.116Z,2.05
2022-08-19T05:50:40.991Z,2.00
2022-08-19T05:53:10.531Z,2.33
2022-08-19T05:55:40.564Z,1.80
2022-08-19T05:58:09.362Z,1.83
2022-08-19T06:00:39.664Z,2.20
2022-08-19T06:03:12.403Z,2.42
2022-08-19T06:05:49.768Z,1.55
2022-08-19T06:08:34.110Z,1.60
2022-08-19T06:11:16.440Z,1.50
2022-08-19T06:16:14.096Z,1.83
2022-08-19T06:18:42.318Z,2.33
2022-08-19T06:21:10.555Z,1.67
2022-08-19T06:23:38.834Z,1.60
2022-08-19T06:26:07.237Z,1.42
2022-08-19T06:28:35.535Z,1.55
2022-08-19T06:31:08.874Z,2.92
2022-08-19T06:33:38.546Z,1.25
2022-08-19T06:36:07.452Z,1.60
2022-08-19T06:38:35.637Z,1.38
2022-08-19T06:41:07.612Z,1.55
2022-08-19T06:43:36.923Z,1.20
2022-08-19T06:46:13.203Z,1.25
2022-08-19T06:48:45.758Z,2.03
2022-08-19T06:51:16.654Z,1.98
2022-08-19T06:53:48.210Z,1.20
2022-08-19T06:56:18.214Z,2.33
2022-08-19T06:58:47.572Z,1.35
2022-08-19T07:01:15.839Z,1.70
2022-08-19T07:03:45.495Z,1.45
2022-08-19T07:06:43.144Z,2.55
2022-08-19T07:09:07.703Z,1.30
2022-08-19T07:11:36.160Z,1.30
2022-08-19T07:14:05.263Z,1.20
2022-08-19T07:16:33.432Z,2.00
2022-08-19T07:19:11.836Z,1.30
2022-08-19T07:21:44.730Z,1.58
2022-08-19T07:24:13.341Z,1.50
2022-08-19T07:26:44.349Z,1.65
2022-08-19T07:29:13.753Z,1.58
2022-08-19T07:31:43.650Z,1.83
2022-08-19T07:34:16.080Z,1.33
2022-08-19T07:36:46.748Z,1.23
2022-08-19T07:39:16.649Z,1.40
2022-08-19T07:41:45.289Z,1.40
2022-08-19T07:44:15.290Z,1.10
2022-08-19T07:46:48.315Z,1.63
2022-08-19T07:49:20.533Z,0.95
2022-08-19T07:51:50.705Z,1.40
2022-08-19T07:54:20.163Z,1.33
2022-08-19T07:56:48.656Z,1.00
2022-08-19T07:59:21.540Z,1.20
2022-08-19T08:01:51.223Z,0.80
2022-08-19T08:04:38.466Z,0.75
2022-08-19T08:07:25.893Z,1.15
2022-08-19T08:10:03.104Z,0.80
2022-08-19T08:12:35.378Z,1.65
2022-08-19T08:15:12.709Z,1.27
2022-08-19T08:17:49.491Z,1.02
2022-08-19T08:20:22.145Z,1.70
2022-08-19T08:23:08.207Z,1.00
2022-08-19T08:25:37.598Z,1.40
2022-08-19T08:28:06.366Z,1.35
2022-08-19T08:30:36.981Z,1.55
2022-08-19T08:33:05.784Z,1.90
2022-08-19T08:35:35.727Z,1.17
2022-08-19T08:38:04.799Z,1.15
2022-08-19T08:40:42.278Z,1.05
2022-08-19T08:43:22.436Z,3.25
2022-08-19T08:45:57.763Z,1.38
2022-08-19T08:48:35.143Z,1.30
2022-08-19T08:51:07.253Z,1.35
2022-08-19T08:53:42.101Z,2.10
2022-08-19T08:56:17.072Z,1.60
2022-08-19T08:58:56.681Z,1.63
2022-08-19T09:01:25.213Z,1.67
2022-08-19T09:04:02.719Z,1.33
2022-08-19T09:06:41.508Z,1.58
2022-08-19T09:09:17.935Z,0.90
2022-08-19T09:12:03.153Z,1.02
2022-08-19T09:14:51.507Z,1.25
2022-08-19T09:17:29.245Z,1.30
2022-08-19T09:20:00.147Z,1.13
2022-08-19T09:22:31.720Z,0.63
2022-08-19T09:24:59.914Z,0.90
2022-08-19T09:27:42.946Z,1.17
2022-08-19T09:30:16.785Z,1.00
2022-08-19T09:32:45.660Z,1.00
2022-08-19T09:35:15.526Z,1.35
2022-08-19T09:37:45.497Z,1.17
2022-08-19T09:40:15.455Z,1.25
2022-08-19T09:42:50.042Z,1.30
2022-08-19T09:45:22.900Z,1.20
2022-08-19T09:47:53.877Z,1.30
2022-08-19T09:50:23.108Z,1.70
2022-08-19T09:52:57.511Z,1.55
2022-08-19T09:55:31.246Z,1.27
2022-08-19T09:58:01.850Z,1.40
2022-08-19T10:00:31.301Z,1.52
2022-08-19T10:02:59.498Z,1.88
2022-08-19T10:05:45.090Z,1.20
2022-08-19T10:08:20.787Z,0.98
2022-08-19T10:10:50.003Z,1.38
2022-08-19T10:13:24.622Z,1.30
2022-08-19T10:15:53.757Z,1.55
2022-08-19T10:18:26.561Z,1.25
2022-08-19T10:21:04.662Z,1.80
2022-08-19T10:23:34.263Z,1.27
2022-08-19T10:26:04.401Z,1.20
2022-08-19T10:28:32.548Z,1.17
2022-08-19T10:31:01.037Z,1.10
2022-08-19T10:33:39.237Z,1.13
2022-08-19T10:36:21.198Z,1.23
2022-08-19T10:38:56.670Z,1.30
2022-08-19T10:41:28.450Z,1.00
2022-08-19T10:46:33.550Z,0.80
2022-08-19T10:49:02.682Z,1.20
2022-08-19T10:51:57.119Z,1.48
2022-08-19T10:54:49.531Z,2.00
2022-08-19T10:57:17.078Z,1.27
2022-08-19T10:59:45.444Z,1.15
2022-08-19T11:02:14.319Z,1.55
2022-08-19T11:04:43.144Z,1.58
2022-08-19T11:07:12.849Z,1.67
2022-08-19T11:09:44.265Z,1.58
2022-08-19T11:14:42.274Z,1.50
2022-08-19T11:17:12.119Z,1.33
2022-08-19T11:19:40.267Z,1.65
2022-08-19T11:22:10.470Z,1.42
2022-08-19T11:24:44.276Z,1.48
2022-08-19T11:27:12.555Z,1.40
2022-08-19T11:29:41.686Z,1.45
2022-08-19T11:32:11.880Z,1.20
2022-08-19T11:34:40.206Z,1.63
2022-08-19T11:37:09.646Z,1.15
2022-08-19T11:39:39.030Z,1.45
2022-08-19T11:42:23.429Z,1.90
2022-08-19T11:44:51.737Z,1.38
2022-08-19T11:47:20.934Z,1.55
2022-08-19T11:49:49.401Z,1.40
2022-08-19T11:52:17.637Z,2.10
2022-08-19T11:54:45.690Z,2.05
2022-08-19T11:57:17.845Z,1.63
2022-08-19T11:59:50.775Z,1.90
2022-08-19T12:02:20.171Z,1.92
2022-08-19T12:04:48.477Z,2.30
2022-08-19T12:07:16.757Z,1.85
2022-08-19T12:09:45.053Z,2.28
2022-08-19T12:12:15.566Z,2.22
2022-08-19T12:14:43.821Z,2.13
2022-08-19T12:17:12.499Z,2.40
2022-08-19T12:19:42.070Z,2.17
2022-08-19T12:22:10.261Z,2.00
2022-08-19T12:24:38.438Z,2.53
2022-08-19T12:27:09.994Z,1.90
2022-08-19T12:29:42.600Z,1.98
2022-08-19T12:32:12.728Z,1.75
2022-08-19T12:34:41.587Z,1.98
2022-08-19T12:37:10.480Z,1.83
2022-08-19T12:39:42.275Z,1.83
2022-08-19T12:42:10.710Z,1.90
2022-08-19T12:44:41.531Z,2.70
2022-08-19T12:47:15.403Z,1.50
2022-08-19T12:49:53.921Z,2.40
2022-08-19T12:52:24.714Z,2.35
2022-08-19T12:54:55.544Z,2.10
2022-08-19T12:57:31.658Z,3.38
2022-08-19T13:00:04.730Z,4.93
2022-08-19T13:02:38.621Z,2.08
2022-08-19T13:05:09.383Z,2.15
2022-08-19T13:07:38.291Z,2.78
2022-08-19T13:10:08.121Z,2.00
2022-08-19T13:12:36.572Z,2.80
2022-08-19T13:15:10.638Z,1.83
2022-08-19T13:17:42.176Z,2.03
2022-08-19T13:20:12.513Z,2.63
2022-08-19T13:22:40.780Z,2.55
2022-08-19T13:25:10.579Z,2.08
2022-08-19T13:27:40.005Z,2.30
2022-08-19T13:30:43.856Z,2.38
2022-08-19T13:33:15.999Z,1.70
2022-08-19T13:35:50.131Z,2.20
2022-08-19T13:38:21.585Z,2.15
2022-08-19T13:43:23.011Z,2.30
2022-08-19T13:45:57.726Z,1.77
2022-08-19T13:48:28.585Z,1.92
2022-08-19T13:50:57.213Z,1.90
2022-08-19T13:53:25.704Z,2.33
2022-08-19T13:55:54.728Z,1.88
2022-08-19T13:58:23.680Z,2.10
2022-08-19T14:00:51.886Z,1.55
2022-08-19T14:03:20.185Z,1.90
2022-08-19T14:05:49.957Z,1.70
2022-08-19T14:08:19.350Z,2.15
2022-08-19T14:10:48.289Z,1.50
2022-08-19T14:13:18.365Z,1.70
2022-08-19T14:15:48.278Z,1.73
2022-08-19T14:18:18.076Z,1.50
2022-08-19T14:20:47.026Z,1.63
2022-08-19T14:23:16.653Z,1.90
2022-08-19T14:25:45.625Z,1.10
2022-08-19T14:28:13.777Z,1.50
2022-08-19T14:30:41.970Z,1.50
2022-08-19T14:33:10.984Z,1.65
2022-08-19T14:35:39.755Z,1.60
2022-08-19T14:38:17.344Z,2.00
2022-08-19T14:40:47.586Z,1.40
2022-08-19T14:43:15.694Z,1.85
2022-08-19T14:45:46.459Z,1.20
2022-08-19T14:48:18.977Z,1.08
2022-08-19T14:50:47.983Z,1.33
2022-08-19T14:53:18.806Z,1.67
2022-08-19T14:55:49.067Z,1.60
2022-08-19T14:58:29.870Z,1.65
2022-08-19T15:00:59.937Z,1.10
2022-08-19T15:03:28.351Z,1.65
2022-08-19T15:05:58.706Z,1.02
2022-08-19T15:08:28.185Z,1.17
2022-08-19T15:10:58.979Z,1.17
2022-08-19T15:13:29.035Z,1.45
2022-08-19T15:15:58.139Z,1.70
2022-08-19T15:18:26.978Z,1.55
2022-08-19T15:20:56.072Z,1.50
2022-08-19T15:23:24.609Z,1.42
2022-08-19T15:25:56.701Z,1.38
2022-08-19T15:28:27.764Z,1.30
2022-08-19T15:30:56.609Z,2.08
2022-08-19T15:33:25.120Z,1.63
2022-08-19T15:35:54.181Z,1.80
2022-08-19T15:38:24.594Z,1.23
2022-08-19T15:40:53.227Z,1.15
2022-08-19T15:43:23.527Z,0.98
2022-08-19T15:45:53.071Z,1.33
2022-08-19T15:48:21.184Z,1.10
2022-08-19T15:50:49.485Z,1.30
2022-08-19T15:53:17.795Z,1.27
2022-08-19T15:55:48.668Z,1.52
2022-08-19T15:58:35.138Z,0.98
2022-08-19T16:01:24.390Z,1.42
2022-08-19T16:06:46.048Z,1.25
2022-08-19T16:09:15.472Z,1.20
2022-08-19T16:11:46.408Z,0.85
2022-08-19T16:14:16.945Z,1.02
2022-08-19T16:16:48.158Z,0.90
2022-08-19T16:19:19.984Z,0.80
2022-08-19T16:21:52.593Z,1.63
2022-08-19T16:24:22.420Z,1.00
2022-08-19T16:26:50.853Z,1.15
2022-08-19T16:29:34.819Z,0.98
2022-08-19T16:32:11.655Z,0.90
2022-08-19T16:34:41.542Z,1.13
2022-08-19T16:37:10.766Z,1.83
2022-08-19T16:39:39.366Z,0.80
2022-08-19T16:42:09.829Z,1.52
2022-08-19T16:44:39.562Z,0.90
2022-08-19T16:47:09.624Z,1.10
2022-08-19T16:49:53.590Z,0.82
2022-08-19T16:52:27.256Z,0.73
2022-08-19T16:54:55.777Z,1.30
2022-08-19T16:57:25.071Z,1.27
2022-08-19T16:59:53.608Z,1.27
2022-08-19T17:02:25.506Z,1.10
2022-08-19T17:04:57.344Z,1.20
2022-08-19T17:07:27.697Z,1.58
2022-08-19T17:09:55.993Z,1.38
2022-08-19T17:12:30.338Z,1.02
2022-08-19T17:15:02.644Z,1.40
2022-08-19T17:17:33.077Z,1.38
2022-08-19T17:20:02.685Z,1.60
2022-08-19T17:22:30.997Z,1.40
2022-08-19T17:24:59.135Z,1.48
2022-08-19T17:27:32.466Z,1.10
2022-08-19T17:30:02.586Z,1.00
2022-08-19T17:32:35.764Z,1.45
2022-08-19T17:35:04.925Z,0.95
2022-08-19T17:37:33.279Z,1.65
2022-08-19T17:40:03.027Z,1.10
2022-08-19T17:42:32.144Z,1.05
2022-08-19T17:45:00.767Z,1.63
2022-08-19T17:47:29.591Z,1.13
2022-08-19T17:49:59.670Z,1.58
2022-08-19T17:52:28.100Z,1.20
2022-08-19T17:54:56.538Z,1.35
2022-08-19T17:57:24.855Z,1.52
2022-08-19T17:59:53.597Z,1.63
2022-08-19T18:02:22.504Z,1.40
2022-08-19T18:04:50.773Z,1.33
2022-08-19T18:07:21.767Z,1.38
2022-08-19T18:09:54.127Z,1.20
2022-08-19T18:12:26.660Z,1.70
2022-08-19T18:14:55.201Z,1.45
2022-08-19T18:17:24.628Z,1.40
2022-08-19T18:19:52.878Z,1.80
2022-08-19T18:22:27.907Z,1.30
2022-08-19T18:24:57.215Z,1.48
2022-08-19T18:27:26.368Z,1.27
2022-08-19T18:29:59.792Z,1.10
2022-08-19T18:32:31.764Z,0.93
2022-08-19T18:35:01.489Z,1.20
2022-08-19T18:37:32.328Z,1.30
2022-08-19T18:40:17.739Z,1.25
2022-08-19T18:43:04.904Z,0.80
2022-08-19T18:45:51.095Z,1.95
2022-08-19T18:48:36.737Z,1.17
2022-08-19T18:51:05.962Z,1.13
2022-08-19T18:53:38.473Z,1.10
2022-08-19T18:56:08.373Z,1.20
2022-08-19T18:58:39.008Z,0.82
2022-08-19T19:01:11.838Z,0.80
2022-08-19T19:03:45.390Z,0.85
2022-08-19T19:06:14.382Z,0.85
2022-08-19T19:08:45.110Z,0.60
2022-08-19T19:11:13.727Z,0.88
2022-08-19T19:13:42.310Z,1.00
2022-08-19T19:16:11.730Z,0.77
2022-08-19T19:18:40.396Z,0.88
2022-08-19T19:21:09.453Z,0.93
2022-08-19T19:23:40.654Z,1.05
2022-08-19T19:26:11.335Z,1.30
2022-08-19T19:28:45.622Z,0.80
2022-08-19T19:31:17.291Z,1.55
2022-08-19T19:33:46.833Z,1.23
2022-08-19T19:36:15.410Z,1.05
2022-08-19T19:38:48.583Z,1.20
2022-08-19T19:41:23.781Z,0.95
2022-08-19T19:44:10.103Z,1.60
2022-08-19T19:46:42.688Z,1.77
2022-08-19T19:49:12.493Z,1.25
2022-08-19T19:51:41.745Z,1.10
2022-08-19T19:54:14.503Z,0.70
2022-08-19T19:56:45.579Z,1.10
2022-08-19T19:59:14.479Z,1.10
2022-08-19T20:01:46.997Z,1.33
2022-08-19T20:04:16.559Z,1.23
2022-08-19T20:06:45.974Z,1.75
2022-08-19T20:09:19.485Z,1.00
2022-08-19T20:11:53.565Z,1.15
2022-08-19T20:14:24.505Z,1.50
2022-08-19T20:16:53.685Z,1.33
2022-08-19T20:19:26.216Z,1.13
2022-08-19T20:21:57.578Z,1.08
2022-08-19T20:24:28.875Z,1.00
2022-08-19T20:27:01.029Z,1.00
2022-08-19T20:29:39.339Z,0.77
2022-08-19T20:32:09.749Z,0.98
2022-08-19T20:34:38.378Z,1.75
2022-08-19T20:37:09.558Z,1.08
2022-08-19T20:42:08.077Z,1.48
2022-08-19T20:44:38.000Z,1.25
2022-08-19T20:47:06.509Z,1.35
2022-08-19T20:49:35.318Z,1.38
2022-08-19T20:52:05.147Z,1.55
2022-08-19T20:54:34.022Z,1.52
2022-08-19T20:57:03.759Z,1.13
2022-08-19T20:59:33.599Z,1.13
2022-08-19T21:02:01.885Z,1.30
2022-08-19T21:04:30.117Z,0.90
2022-08-19T21:06:58.656Z,1.50
2022-08-19T21:09:26.817Z,1.25
2022-08-19T21:11:55.118Z,1.83
2022-08-19T21:14:24.050Z,1.35
2022-08-19T21:16:54.120Z,1.35
2022-08-19T21:19:24.103Z,1.35
2022-08-19T21:21:52.641Z,1.27
2022-08-19T21:24:21.140Z,1.20
2022-08-19T21:26:54.466Z,1.15
2022-08-19T21:29:22.742Z,0.95
2022-08-19T21:31:51.384Z,1.00
2022-08-19T21:34:21.404Z,1.23
2022-08-19T21:36:49.458Z,1.20
2022-08-19T21:39:18.176Z,0.90
2022-08-19T21:41:46.424Z,1.38
2022-08-19T21:44:14.727Z,1.30
2022-08-19T21:46:42.913Z,1.20
2022-08-19T21:49:11.039Z,1.52
2022-08-19T21:51:40.666Z,1.50
2022-08-19T21:54:08.875Z,1.20
2022-08-19T21:56:42.721Z,1.33
2022-08-19T21:59:10.917Z,1.10
2022-08-19T22:01:39.021Z,1.05
2022-08-19T22:04:07.185Z,1.00
2022-08-19T22:06:35.369Z,1.33
2022-08-19T22:09:05.460Z,1.10
2022-08-19T22:11:33.931Z,0.98
2022-08-19T22:14:03.912Z,1.27
2022-08-19T22:16:32.750Z,0.60
2022-08-19T22:19:00.988Z,1.25
2022-08-19T22:21:35.601Z,1.05
2022-08-19T22:24:10.639Z,1.35
2022-08-19T22:26:38.970Z,1.00
2022-08-19T22:29:07.585Z,1.33
2022-08-19T22:31:37.631Z,1.10
2022-08-19T22:34:07.077Z,1.02
2022-08-19T22:36:35.560Z,1.65
2022-08-19T22:39:05.234Z,1.40
2022-08-19T22:41:34.919Z,1.35
2022-08-19T22:44:04.128Z,0.88
2022-08-19T22:46:33.750Z,1.05
2022-08-19T22:49:01.900Z,1.00
2022-08-19T22:51:47.500Z,0.88
2022-08-19T22:54:16.054Z,1.50
2022-08-19T22:56:45.630Z,1.38
2022-08-19T22:59:13.829Z,1.10
2022-08-19T23:01:42.702Z,1.00
2022-08-19T23:04:11.091Z,1.10
2022-08-19T23:06:42.085Z,1.15
2022-08-19T23:09:11.296Z,0.77
2022-08-19T23:11:48.714Z,1.10
2022-08-19T23:14:18.630Z,1.08
2022-08-19T23:16:50.927Z,1.52
2022-08-19T23:19:20.822Z,1.23
2022-08-19T23:21:49.835Z,1.90
2022-08-19T23:24:18.147Z,1.13
2022-08-19T23:27:01.837Z,1.30
2022-08-19T23:29:48.539Z,1.23
2022-08-19T23:32:17.389Z,1.13
2022-08-19T23:34:46.046Z,1.50
2022-08-19T23:37:14.319Z,1.23
2022-08-19T23:39:43.657Z,1.25
2022-08-19T23:42:15.751Z,1.10
2022-08-19T23:44:51.697Z,1.30
2022-08-19T23:47:21.459Z,1.60
2022-08-19T23:49:50.774Z,1.23
2022-08-19T23:52:18.982Z,1.55
2022-08-19T23:54:47.143Z,1.50
2022-08-19T23:57:16.908Z,1.35
2022-08-19T23:59:46.306Z,1.42
